Decoded Metar for CYQW (NORTH BATTLEFORD in SK, CANADA) (IATA:YQW) | Meteo·Mobile Aviation Weather
aviador You're here:

CYQW Decoded Metar

NORTH BATTLEFORD in SK, CANADA
Report Time2018-10-18 09:00:00
UTC Time2018-10-18 09:34:26
Flight Rules vfr VFR
Wind230° at 07 kt
W.Decomp.*RWY 24: 6.5 kt HW 2.6 kt LCW
RWY 30: 1.0 kt HW 6.9 kt LCW
W.Rank230° ranks 23
Current wind is below 230° avg. (7.1)
Visibility9999 m
Phenomena:N/A
Clouds:N/A
Expected CloudBase > 3,200 ft AGL from Temp-Dew spread
CeilingNone
Temp05°C (ISA -6)
Dew Point-3°C (57% RH)
AAT0.1°C
QNH1011 hPa
Density Alt1,165 ft
Elevation1,798 ft
Report Wrong Elevation
Raw Report
CYQW 180900Z AUTO 23007KT 9SM CLR 05/M03 A2986 RMK SLP121=

Extra information for CYQW:More info

Metar Taf Metar & Taf Last 4 Metars F.Rules Stats Wind Profile Meteogram Temp Stats Airport Information Weather charts Add Link Nearby VenuesMetar ALERT Operation Metar Decoded Social comments